sensor_id;sensor_type;location;lat;lon;timestamp;P1;durP1;ratioP1;P2;durP2;ratioP2
22768;SDS011;13001;51.968;5.918;2023-02-08T00:00:38;781.90;;;720.40;;
22768;SDS011;13001;51.968;5.918;2023-02-08T00:03:06;785.77;;;724.67;;
22768;SDS011;13001;51.968;5.918;2023-02-08T00:05:33;780.17;;;719.93;;
22768;SDS011;13001;51.968;5.918;2023-02-08T00:08:00;774.17;;;713.90;;
22768;SDS011;13001;51.968;5.918;2023-02-08T00:10:27;760.33;;;702.17;;
22768;SDS011;13001;51.968;5.918;2023-02-08T00:12:55;780.60;;;719.90;;
22768;SDS011;13001;51.968;5.918;2023-02-08T00:15:22;812.60;;;749.40;;
22768;SDS011;13001;51.968;5.918;2023-02-08T00:17:49;792.90;;;731.93;;
22768;SDS011;13001;51.968;5.918;2023-02-08T00:20:17;758.53;;;701.50;;
22768;SDS011;13001;51.968;5.918;2023-02-08T00:22:44;802.40;;;739.33;;
22768;SDS011;13001;51.968;5.918;2023-02-08T00:25:11;795.40;;;733.57;;
22768;SDS011;13001;51.968;5.918;2023-02-08T00:27:39;712.53;;;658.57;;
22768;SDS011;13001;51.968;5.918;2023-02-08T00:30:06;778.80;;;719.20;;
22768;SDS011;13001;51.968;5.918;2023-02-08T00:32:34;768.60;;;710.20;;
22768;SDS011;13001;51.968;5.918;2023-02-08T00:35:01;730.80;;;676.10;;
22768;SDS011;13001;51.968;5.918;2023-02-08T00:37:28;735.37;;;680.47;;
22768;SDS011;13001;51.968;5.918;2023-02-08T00:39:56;809.17;;;747.23;;
22768;SDS011;13001;51.968;5.918;2023-02-08T00:42:25;809.67;;;747.73;;
22768;SDS011;13001;51.968;5.918;2023-02-08T00:44:52;792.10;;;732.30;;
22768;SDS011;13001;51.968;5.918;2023-02-08T00:47:21;825.30;;;762.33;;
22768;SDS011;13001;51.968;5.918;2023-02-08T00:49:48;794.63;;;734.57;;
22768;SDS011;13001;51.968;5.918;2023-02-08T00:52:16;766.33;;;709.50;;
22768;SDS011;13001;51.968;5.918;2023-02-08T00:54:45;791.70;;;732.73;;
22768;SDS011;13001;51.968;5.918;2023-02-08T00:57:12;792.60;;;733.90;;
22768;SDS011;13001;51.968;5.918;2023-02-08T00:59:40;803.33;;;743.33;;
22768;SDS011;13001;51.968;5.918;2023-02-08T01:02:07;764.57;;;708.70;;
22768;SDS011;13001;51.968;5.918;2023-02-08T01:04:34;827.25;;;769.37;;
22768;SDS011;13001;51.968;5.918;2023-02-08T01:07:03;507.60;;;476.22;;
22768;SDS011;13001;51.968;5.918;2023-02-08T01:09:30;368.85;;;344.52;;
22768;SDS011;13001;51.968;5.918;2023-02-08T01:11:58;381.23;;;356.80;;
22768;SDS011;13001;51.968;5.918;2023-02-08T01:14:25;379.87;;;355.27;;
22768;SDS011;13001;51.968;5.918;2023-02-08T01:16:53;390.07;;;364.85;;
22768;SDS011;13001;51.968;5.918;2023-02-08T01:19:20;421.48;;;394.40;;
22768;SDS011;13001;51.968;5.918;2023-02-08T01:21:47;428.05;;;400.00;;
22768;SDS011;13001;51.968;5.918;2023-02-08T01:24:14;423.90;;;396.65;;
22768;SDS011;13001;51.968;5.918;2023-02-08T01:26:42;420.70;;;393.65;;
22768;SDS011;13001;51.968;5.918;2023-02-08T01:29:09;457.98;;;427.45;;
22768;SDS011;13001;51.968;5.918;2023-02-08T01:31:37;457.52;;;427.23;;
22768;SDS011;13001;51.968;5.918;2023-02-08T01:34:05;452.90;;;422.60;;
22768;SDS011;13001;51.968;5.918;2023-02-08T01:36:33;393.15;;;365.02;;
22768;SDS011;13001;51.968;5.918;2023-02-08T01:39:00;373.30;;;346.75;;
22768;SDS011;13001;51.968;5.918;2023-02-08T01:41:30;396.47;;;367.70;;
22768;SDS011;13001;51.968;5.918;2023-02-08T01:46:48;434.37;;;406.20;;
22768;SDS011;13001;51.968;5.918;2023-02-08T01:49:18;380.42;;;356.98;;
22768;SDS011;13001;51.968;5.918;2023-02-08T01:51:41;434.77;;;406.55;;
22768;SDS011;13001;51.968;5.918;2023-02-08T01:54:09;435.90;;;407.43;;
22768;SDS011;13001;51.968;5.918;2023-02-08T01:56:38;439.00;;;410.27;;
22768;SDS011;13001;51.968;5.918;2023-02-08T01:59:09;431.13;;;402.88;;
22768;SDS011;13001;51.968;5.918;2023-02-08T02:01:35;408.75;;;382.77;;
22768;SDS011;13001;51.968;5.918;2023-02-08T02:04:03;429.00;;;401.35;;
22768;SDS011;13001;51.968;5.918;2023-02-08T02:06:35;427.60;;;399.90;;
22768;SDS011;13001;51.968;5.918;2023-02-08T02:11:52;661.37;;;611.53;;
22768;SDS011;13001;51.968;5.918;2023-02-08T02:14:20;780.83;;;719.03;;
22768;SDS011;13001;51.968;5.918;2023-02-08T02:16:48;777.33;;;716.33;;
22768;SDS011;13001;51.968;5.918;2023-02-08T02:19:22;752.77;;;693.27;;
22768;SDS011;13001;51.968;5.918;2023-02-08T02:21:56;755.57;;;696.40;;
22768;SDS011;13001;51.968;5.918;2023-02-08T02:24:32;836.93;;;775.83;;
22768;SDS011;13001;51.968;5.918;2023-02-08T02:27:12;539.80;;;505.00;;
22768;SDS011;13001;51.968;5.918;2023-02-08T02:45:44;418.25;;;391.35;;
22768;SDS011;13001;51.968;5.918;2023-02-08T02:48:11;399.20;;;373.45;;
22768;SDS011;13001;51.968;5.918;2023-02-08T02:50:41;419.07;;;392.07;;
22768;SDS011;13001;51.968;5.918;2023-02-08T02:53:25;451.00;;;419.57;;
22768;SDS011;13001;51.968;5.918;2023-02-08T02:55:54;629.17;;;581.37;;
22768;SDS011;13001;51.968;5.918;2023-02-08T02:58:21;750.90;;;692.47;;
22768;SDS011;13001;51.968;5.918;2023-02-08T03:00:53;746.87;;;687.60;;
22768;SDS011;13001;51.968;5.918;2023-02-08T03:03:23;768.13;;;707.10;;
22768;SDS011;13001;51.968;5.918;2023-02-08T03:05:51;774.00;;;713.23;;
22768;SDS011;13001;51.968;5.918;2023-02-08T03:16:15;819.77;;;757.47;;
22768;SDS011;13001;51.968;5.918;2023-02-08T03:18:48;511.00;;;478.62;;
22768;SDS011;13001;51.968;5.918;2023-02-08T03:24:13;418.85;;;391.85;;
22768;SDS011;13001;51.968;5.918;2023-02-08T03:26:52;403.08;;;377.62;;
22768;SDS011;13001;51.968;5.918;2023-02-08T03:31:58;408.92;;;382.70;;
22768;SDS011;13001;51.968;5.918;2023-02-08T03:34:30;414.93;;;388.17;;
22768;SDS011;13001;51.968;5.918;2023-02-08T03:36:58;413.75;;;387.30;;
22768;SDS011;13001;51.968;5.918;2023-02-08T03:39:26;411.32;;;385.00;;
22768;SDS011;13001;51.968;5.918;2023-02-08T03:42:00;427.32;;;399.95;;
22768;SDS011;13001;51.968;5.918;2023-02-08T03:44:32;425.57;;;398.00;;
22768;SDS011;13001;51.968;5.918;2023-02-08T03:47:04;421.30;;;394.23;;
22768;SDS011;13001;51.968;5.918;2023-02-08T03:49:33;396.73;;;369.23;;
22768;SDS011;13001;51.968;5.918;2023-02-08T03:52:01;431.93;;;400.68;;
22768;SDS011;13001;51.968;5.918;2023-02-08T03:54:30;438.12;;;406.35;;
22768;SDS011;13001;51.968;5.918;2023-02-08T03:57:03;803.27;;;743.65;;
22768;SDS011;13001;51.968;5.918;2023-02-08T03:59:28;385.22;;;361.02;;
22768;SDS011;13001;51.968;5.918;2023-02-08T04:01:57;439.20;;;410.65;;
22768;SDS011;13001;51.968;5.918;2023-02-08T04:04:25;437.42;;;409.37;;
22768;SDS011;13001;51.968;5.918;2023-02-08T04:06:53;443.23;;;414.52;;
22768;SDS011;13001;51.968;5.918;2023-02-08T04:09:20;425.48;;;398.18;;
22768;SDS011;13001;51.968;5.918;2023-02-08T04:11:48;411.30;;;385.22;;
22768;SDS011;13001;51.968;5.918;2023-02-08T04:14:15;385.17;;;360.27;;
22768;SDS011;13001;51.968;5.918;2023-02-08T04:16:42;420.30;;;393.77;;
22768;SDS011;13001;51.968;5.918;2023-02-08T04:19:09;450.75;;;421.35;;
22768;SDS011;13001;51.968;5.918;2023-02-08T04:21:37;457.67;;;427.70;;
22768;SDS011;13001;51.968;5.918;2023-02-08T04:24:04;402.30;;;376.73;;
22768;SDS011;13001;51.968;5.918;2023-02-08T04:26:31;404.80;;;378.42;;
22768;SDS011;13001;51.968;5.918;2023-02-08T04:28:59;404.87;;;379.32;;
22768;SDS011;13001;51.968;5.918;2023-02-08T04:31:26;402.23;;;376.25;;
22768;SDS011;13001;51.968;5.918;2023-02-08T04:33:53;345.87;;;323.93;;
22768;SDS011;13001;51.968;5.918;2023-02-08T04:36:20;369.75;;;346.20;;
22768;SDS011;13001;51.968;5.918;2023-02-08T04:38:48;366.70;;;343.52;;
22768;SDS011;13001;51.968;5.918;2023-02-08T04:41:15;384.80;;;360.43;;
22768;SDS011;13001;51.968;5.918;2023-02-08T04:43:42;354.00;;;331.55;;
22768;SDS011;13001;51.968;5.918;2023-02-08T04:46:10;327.45;;;306.70;;
22768;SDS011;13001;51.968;5.918;2023-02-08T04:48:37;343.77;;;322.15;;
22768;SDS011;13001;51.968;5.918;2023-02-08T04:51:04;380.73;;;356.70;;
22768;SDS011;13001;51.968;5.918;2023-02-08T04:53:31;352.87;;;330.57;;
22768;SDS011;13001;51.968;5.918;2023-02-08T04:56:00;376.92;;;352.75;;
22768;SDS011;13001;51.968;5.918;2023-02-08T04:58:27;323.30;;;302.48;;
22768;SDS011;13001;51.968;5.918;2023-02-08T05:00:54;474.00;;;443.20;;
22768;SDS011;13001;51.968;5.918;2023-02-08T05:03:21;410.93;;;385.13;;
22768;SDS011;13001;51.968;5.918;2023-02-08T05:05:55;397.23;;;370.97;;
22768;SDS011;13001;51.968;5.918;2023-02-08T05:08:23;391.40;;;364.95;;
22768;SDS011;13001;51.968;5.918;2023-02-08T05:10:50;130.12;;;121.55;;
22768;SDS011;13001;51.968;5.918;2023-02-08T05:13:17;406.25;;;380.95;;
22768;SDS011;13001;51.968;5.918;2023-02-08T05:15:45;430.87;;;403.50;;
22768;SDS011;13001;51.968;5.918;2023-02-08T05:18:12;424.88;;;398.18;;
22768;SDS011;13001;51.968;5.918;2023-02-08T05:20:39;453.75;;;424.42;;
22768;SDS011;13001;51.968;5.918;2023-02-08T05:23:07;469.32;;;439.55;;
22768;SDS011;13001;51.968;5.918;2023-02-08T05:25:34;478.07;;;447.70;;
22768;SDS011;13001;51.968;5.918;2023-02-08T05:28:01;460.00;;;430.75;;
22768;SDS011;13001;51.968;5.918;2023-02-08T05:30:28;475.57;;;445.02;;
22768;SDS011;13001;51.968;5.918;2023-02-08T05:32:59;435.50;;;407.62;;
22768;SDS011;13001;51.968;5.918;2023-02-08T05:35:26;429.42;;;402.30;;
22768;SDS011;13001;51.968;5.918;2023-02-08T05:37:54;413.22;;;386.43;;
22768;SDS011;13001;51.968;5.918;2023-02-08T05:40:21;404.05;;;377.43;;
22768;SDS011;13001;51.968;5.918;2023-02-08T05:42:48;398.18;;;371.70;;
22768;SDS011;13001;51.968;5.918;2023-02-08T05:45:15;414.97;;;387.70;;
22768;SDS011;13001;51.968;5.918;2023-02-08T05:47:43;412.08;;;384.48;;
22768;SDS011;13001;51.968;5.918;2023-02-08T05:50:12;440.50;;;412.30;;
22768;SDS011;13001;51.968;5.918;2023-02-08T05:52:40;455.33;;;425.85;;
22768;SDS011;13001;51.968;5.918;2023-02-08T05:55:07;443.63;;;415.02;;
22768;SDS011;13001;51.968;5.918;2023-02-08T05:57:34;421.37;;;394.62;;
22768;SDS011;13001;51.968;5.918;2023-02-08T06:00:05;397.00;;;371.57;;
22768;SDS011;13001;51.968;5.918;2023-02-08T06:02:33;398.52;;;373.15;;
22768;SDS011;13001;51.968;5.918;2023-02-08T06:05:00;395.53;;;370.07;;
22768;SDS011;13001;51.968;5.918;2023-02-08T06:07:28;412.35;;;385.68;;
22768;SDS011;13001;51.968;5.918;2023-02-08T06:09:55;415.70;;;389.48;;
22768;SDS011;13001;51.968;5.918;2023-02-08T06:12:24;380.60;;;356.45;;
22768;SDS011;13001;51.968;5.918;2023-02-08T06:14:51;378.07;;;354.40;;
22768;SDS011;13001;51.968;5.918;2023-02-08T06:17:18;401.80;;;376.67;;
22768;SDS011;13001;51.968;5.918;2023-02-08T06:19:45;384.37;;;360.05;;
22768;SDS011;13001;51.968;5.918;2023-02-08T06:22:13;370.37;;;347.17;;
22768;SDS011;13001;51.968;5.918;2023-02-08T06:24:40;381.10;;;357.37;;
22768;SDS011;13001;51.968;5.918;2023-02-08T06:27:07;373.23;;;349.88;;
22768;SDS011;13001;51.968;5.918;2023-02-08T06:29:35;386.98;;;362.82;;
22768;SDS011;13001;51.968;5.918;2023-02-08T06:32:02;380.30;;;356.68;;
22768;SDS011;13001;51.968;5.918;2023-02-08T06:34:29;371.70;;;348.27;;
22768;SDS011;13001;51.968;5.918;2023-02-08T06:36:57;409.17;;;383.43;;
22768;SDS011;13001;51.968;5.918;2023-02-08T06:39:26;390.55;;;365.87;;
22768;SDS011;13001;51.968;5.918;2023-02-08T06:41:55;398.38;;;373.13;;
22768;SDS011;13001;51.968;5.918;2023-02-08T06:44:22;388.25;;;363.85;;
22768;SDS011;13001;51.968;5.918;2023-02-08T06:46:50;388.65;;;364.32;;
22768;SDS011;13001;51.968;5.918;2023-02-08T06:49:18;383.38;;;359.30;;
22768;SDS011;13001;51.968;5.918;2023-02-08T06:51:45;388.05;;;363.57;;
22768;SDS011;13001;51.968;5.918;2023-02-08T06:54:12;396.50;;;371.35;;
22768;SDS011;13001;51.968;5.918;2023-02-08T06:56:41;407.00;;;381.53;;
22768;SDS011;13001;51.968;5.918;2023-02-08T06:59:08;425.18;;;398.77;;
22768;SDS011;13001;51.968;5.918;2023-02-08T07:01:35;439.67;;;411.90;;
22768;SDS011;13001;51.968;5.918;2023-02-08T07:04:03;469.80;;;440.40;;
22768;SDS011;13001;51.968;5.918;2023-02-08T07:06:30;423.40;;;396.82;;
22768;SDS011;13001;51.968;5.918;2023-02-08T07:08:57;409.20;;;383.27;;
22768;SDS011;13001;51.968;5.918;2023-02-08T07:11:24;436.35;;;408.70;;
22768;SDS011;13001;51.968;5.918;2023-02-08T07:13:52;448.85;;;421.12;;
22768;SDS011;13001;51.968;5.918;2023-02-08T07:16:20;457.12;;;428.60;;
22768;SDS011;13001;51.968;5.918;2023-02-08T07:18:47;416.12;;;390.05;;
22768;SDS011;13001;51.968;5.918;2023-02-08T07:21:15;419.87;;;393.57;;
22768;SDS011;13001;51.968;5.918;2023-02-08T07:23:42;420.02;;;393.70;;
22768;SDS011;13001;51.968;5.918;2023-02-08T07:26:11;385.32;;;361.30;;
22768;SDS011;13001;51.968;5.918;2023-02-08T07:28:40;362.00;;;339.23;;
22768;SDS011;13001;51.968;5.918;2023-02-08T07:31:08;390.90;;;366.60;;
22768;SDS011;13001;51.968;5.918;2023-02-08T07:33:35;369.52;;;346.70;;
22768;SDS011;13001;51.968;5.918;2023-02-08T07:36:03;370.33;;;347.43;;
22768;SDS011;13001;51.968;5.918;2023-02-08T07:38:31;399.70;;;375.07;;
22768;SDS011;13001;51.968;5.918;2023-02-08T07:41:05;414.30;;;388.30;;
22768;SDS011;13001;51.968;5.918;2023-02-08T07:43:34;413.48;;;386.05;;
22768;SDS011;13001;51.968;5.918;2023-02-08T07:46:05;442.48;;;412.92;;
22768;SDS011;13001;51.968;5.918;2023-02-08T07:48:33;337.45;;;314.75;;
22768;SDS011;13001;51.968;5.918;2023-02-08T07:51:00;297.85;;;278.37;;
22768;SDS011;13001;51.968;5.918;2023-02-08T07:53:28;363.35;;;337.70;;
22768;SDS011;13001;51.968;5.918;2023-02-08T07:55:55;196.47;;;183.27;;
22768;SDS011;13001;51.968;5.918;2023-02-08T07:58:23;204.50;;;190.37;;
22768;SDS011;13001;51.968;5.918;2023-02-08T08:00:51;209.53;;;194.80;;
22768;SDS011;13001;51.968;5.918;2023-02-08T08:03:18;175.77;;;163.57;;
22768;SDS011;13001;51.968;5.918;2023-02-08T08:05:45;221.97;;;206.07;;
22768;SDS011;13001;51.968;5.918;2023-02-08T08:08:12;178.13;;;164.90;;
22768;SDS011;13001;51.968;5.918;2023-02-08T08:10:40;145.30;;;135.07;;
22768;SDS011;13001;51.968;5.918;2023-02-08T08:13:07;152.27;;;141.65;;
22768;SDS011;13001;51.968;5.918;2023-02-08T08:15:34;213.87;;;199.70;;
22768;SDS011;13001;51.968;5.918;2023-02-08T08:18:01;273.90;;;258.10;;
22768;SDS011;13001;51.968;5.918;2023-02-08T08:20:29;204.97;;;192.25;;
22768;SDS011;13001;51.968;5.918;2023-02-08T08:22:56;121.53;;;113.92;;
22768;SDS011;13001;51.968;5.918;2023-02-08T08:25:23;61.40;;;57.30;;
22768;SDS011;13001;51.968;5.918;2023-02-08T08:27:52;67.75;;;63.40;;
22768;SDS011;13001;51.968;5.918;2023-02-08T08:30:20;70.62;;;65.90;;
22768;SDS011;13001;51.968;5.918;2023-02-08T08:32:47;64.72;;;60.40;;
22768;SDS011;13001;51.968;5.918;2023-02-08T08:35:14;62.98;;;58.87;;
22768;SDS011;13001;51.968;5.918;2023-02-08T08:47:28;80.25;;;74.80;;
22768;SDS011;13001;51.968;5.918;2023-02-08T08:49:55;67.73;;;63.13;;
22768;SDS011;13001;51.968;5.918;2023-02-08T08:52:22;60.93;;;56.90;;
22768;SDS011;13001;51.968;5.918;2023-02-08T08:54:50;58.40;;;54.63;;
22768;SDS011;13001;51.968;5.918;2023-02-08T08:57:18;65.77;;;61.40;;
22768;SDS011;13001;51.968;5.918;2023-02-08T08:59:45;61.87;;;57.97;;
22768;SDS011;13001;51.968;5.918;2023-02-08T09:02:12;59.23;;;55.40;;
22768;SDS011;13001;51.968;5.918;2023-02-08T09:04:40;53.43;;;49.77;;
22768;SDS011;13001;51.968;5.918;2023-02-08T09:07:08;48.03;;;44.83;;
22768;SDS011;13001;51.968;5.918;2023-02-08T09:09:35;47.10;;;42.93;;
22768;SDS011;13001;51.968;5.918;2023-02-08T09:12:03;43.80;;;40.92;;
22768;SDS011;13001;51.968;5.918;2023-02-08T09:14:30;44.20;;;40.98;;
22768;SDS011;13001;51.968;5.918;2023-02-08T09:16:58;41.92;;;38.95;;
22768;SDS011;13001;51.968;5.918;2023-02-08T09:19:25;43.63;;;40.60;;
22768;SDS011;13001;51.968;5.918;2023-02-08T09:21:53;41.18;;;38.25;;
22768;SDS011;13001;51.968;5.918;2023-02-08T09:24:20;37.98;;;35.43;;
22768;SDS011;13001;51.968;5.918;2023-02-08T09:26:47;41.30;;;38.50;;
22768;SDS011;13001;51.968;5.918;2023-02-08T09:32:03;42.07;;;38.67;;
22768;SDS011;13001;51.968;5.918;2023-02-08T09:34:30;56.10;;;52.67;;
22768;SDS011;13001;51.968;5.918;2023-02-08T09:36:58;80.80;;;75.13;;
22768;SDS011;13001;51.968;5.918;2023-02-08T09:39:25;86.50;;;80.93;;
22768;SDS011;13001;51.968;5.918;2023-02-08T09:47:09;90.43;;;84.57;;
22768;SDS011;13001;51.968;5.918;2023-02-08T09:49:37;79.53;;;74.20;;
22768;SDS011;13001;51.968;5.918;2023-02-08T09:52:07;75.47;;;70.43;;
22768;SDS011;13001;51.968;5.918;2023-02-08T09:54:35;82.07;;;76.40;;
22768;SDS011;13001;51.968;5.918;2023-02-08T10:02:01;93.87;;;87.73;;
22768;SDS011;13001;51.968;5.918;2023-02-08T10:04:27;90.17;;;84.30;;
22768;SDS011;13001;51.968;5.918;2023-02-08T10:06:53;126.80;;;118.50;;
22768;SDS011;13001;51.968;5.918;2023-02-08T10:09:21;95.27;;;89.57;;
22768;SDS011;13001;51.968;5.918;2023-02-08T10:11:55;98.23;;;92.17;;
22768;SDS011;13001;51.968;5.918;2023-02-08T10:19:24;134.07;;;125.78;;
22768;SDS011;13001;51.968;5.918;2023-02-08T10:27:07;96.33;;;90.23;;
22768;SDS011;13001;51.968;5.918;2023-02-08T10:32:14;102.30;;;95.97;;
22768;SDS011;13001;51.968;5.918;2023-02-08T10:34:45;103.53;;;96.53;;
22768;SDS011;13001;51.968;5.918;2023-02-08T10:37:16;103.93;;;97.40;;
22768;SDS011;13001;51.968;5.918;2023-02-08T10:39:44;112.03;;;105.07;;
22768;SDS011;13001;51.968;5.918;2023-02-08T10:42:13;143.43;;;134.60;;
22768;SDS011;13001;51.968;5.918;2023-02-08T10:50:14;189.43;;;177.73;;
22768;SDS011;13001;51.968;5.918;2023-02-08T10:52:40;138.83;;;130.03;;
22768;SDS011;13001;51.968;5.918;2023-02-08T10:55:15;179.13;;;167.80;;
22768;SDS011;13001;51.968;5.918;2023-02-08T10:57:45;165.90;;;155.57;;
22768;SDS011;13001;51.968;5.918;2023-02-08T11:02:45;163.20;;;152.83;;
22768;SDS011;13001;51.968;5.918;2023-02-08T11:05:18;149.90;;;140.63;;
22768;SDS011;13001;51.968;5.918;2023-02-08T11:07:42;139.73;;;130.83;;
22768;SDS011;13001;51.968;5.918;2023-02-08T11:13:01;138.80;;;130.13;;
22768;SDS011;13001;51.968;5.918;2023-02-08T11:15:33;108.03;;;101.27;;
22768;SDS011;13001;51.968;5.918;2023-02-08T11:18:00;103.20;;;96.93;;
22768;SDS011;13001;51.968;5.918;2023-02-08T11:20:35;116.00;;;108.63;;
22768;SDS011;13001;51.968;5.918;2023-02-08T11:23:23;124.80;;;117.27;;
22768;SDS011;13001;51.968;5.918;2023-02-08T11:25:47;126.50;;;118.80;;
22768;SDS011;13001;51.968;5.918;2023-02-08T11:28:26;131.07;;;122.77;;
22768;SDS011;13001;51.968;5.918;2023-02-08T11:30:57;126.00;;;118.20;;
22768;SDS011;13001;51.968;5.918;2023-02-08T11:33:25;124.70;;;117.10;;
22768;SDS011;13001;51.968;5.918;2023-02-08T11:38:24;125.80;;;118.23;;
22768;SDS011;13001;51.968;5.918;2023-02-08T11:40:56;118.10;;;110.87;;
22768;SDS011;13001;51.968;5.918;2023-02-08T11:43:25;131.60;;;123.50;;
22768;SDS011;13001;51.968;5.918;2023-02-08T11:45:53;117.00;;;109.87;;
22768;SDS011;13001;51.968;5.918;2023-02-08T11:48:25;120.67;;;112.93;;
22768;SDS011;13001;51.968;5.918;2023-02-08T11:50:54;108.00;;;101.60;;
22768;SDS011;13001;51.968;5.918;2023-02-08T11:53:26;100.97;;;94.43;;
22768;SDS011;13001;51.968;5.918;2023-02-08T11:56:00;104.83;;;98.50;;
22768;SDS011;13001;51.968;5.918;2023-02-08T11:58:28;108.13;;;101.57;;
22768;SDS011;13001;51.968;5.918;2023-02-08T12:01:00;115.40;;;108.50;;
22768;SDS011;13001;51.968;5.918;2023-02-08T12:03:26;99.83;;;93.63;;
22768;SDS011;13001;51.968;5.918;2023-02-08T12:06:07;100.03;;;93.80;;
22768;SDS011;13001;51.968;5.918;2023-02-08T12:08:39;119.40;;;112.23;;
22768;SDS011;13001;51.968;5.918;2023-02-08T12:11:11;111.10;;;104.33;;
22768;SDS011;13001;51.968;5.918;2023-02-08T12:13:56;121.23;;;113.83;;
22768;SDS011;13001;51.968;5.918;2023-02-08T12:19:00;70.27;;;65.93;;
22768;SDS011;13001;51.968;5.918;2023-02-08T12:21:29;80.37;;;75.23;;
22768;SDS011;13001;51.968;5.918;2023-02-08T12:23:55;103.23;;;96.90;;
22768;SDS011;13001;51.968;5.918;2023-02-08T12:29:27;97.53;;;91.50;;
22768;SDS011;13001;51.968;5.918;2023-02-08T12:31:59;73.97;;;69.27;;
22768;SDS011;13001;51.968;5.918;2023-02-08T12:36:57;72.33;;;67.70;;
22768;SDS011;13001;51.968;5.918;2023-02-08T12:39:38;77.43;;;72.23;;
22768;SDS011;13001;51.968;5.918;2023-02-08T12:42:18;79.53;;;74.13;;
22768;SDS011;13001;51.968;5.918;2023-02-08T12:50:23;97.10;;;91.00;;
22768;SDS011;13001;51.968;5.918;2023-02-08T12:52:56;91.97;;;86.03;;
22768;SDS011;13001;51.968;5.918;2023-02-08T12:57:52;92.13;;;86.23;;
22768;SDS011;13001;51.968;5.918;2023-02-08T13:00:26;94.17;;;88.17;;
22768;SDS011;13001;51.968;5.918;2023-02-08T13:02:54;99.87;;;93.47;;
22768;SDS011;13001;51.968;5.918;2023-02-08T13:05:23;89.83;;;83.93;;
22768;SDS011;13001;51.968;5.918;2023-02-08T13:10:28;92.93;;;87.10;;
22768;SDS011;13001;51.968;5.918;2023-02-08T13:13:07;82.20;;;76.93;;
22768;SDS011;13001;51.968;5.918;2023-02-08T13:16:12;90.47;;;84.77;;
22768;SDS011;13001;51.968;5.918;2023-02-08T13:17:53;86.93;;;81.43;;
22768;SDS011;13001;51.968;5.918;2023-02-08T13:20:40;91.13;;;85.07;;
22768;SDS011;13001;51.968;5.918;2023-02-08T13:25:48;101.57;;;94.77;;
22768;SDS011;13001;51.968;5.918;2023-02-08T13:28:17;89.77;;;83.90;;
22768;SDS011;13001;51.968;5.918;2023-02-08T13:30:46;97.87;;;91.50;;
22768;SDS011;13001;51.968;5.918;2023-02-08T13:33:15;95.57;;;89.07;;
22768;SDS011;13001;51.968;5.918;2023-02-08T13:35:47;107.20;;;100.17;;
22768;SDS011;13001;51.968;5.918;2023-02-08T13:38:24;84.00;;;78.40;;
22768;SDS011;13001;51.968;5.918;2023-02-08T13:40:46;90.13;;;84.27;;
22768;SDS011;13001;51.968;5.918;2023-02-08T13:45:45;96.57;;;90.10;;
22768;SDS011;13001;51.968;5.918;2023-02-08T13:48:15;91.93;;;85.87;;
22768;SDS011;13001;51.968;5.918;2023-02-08T13:50:47;96.53;;;89.93;;
22768;SDS011;13001;51.968;5.918;2023-02-08T13:53:16;97.60;;;90.77;;
22768;SDS011;13001;51.968;5.918;2023-02-08T13:55:51;100.03;;;93.43;;
22768;SDS011;13001;51.968;5.918;2023-02-08T13:58:38;99.87;;;93.47;;
22768;SDS011;13001;51.968;5.918;2023-02-08T14:06:32;98.23;;;91.93;;
22768;SDS011;13001;51.968;5.918;2023-02-08T14:09:20;99.10;;;92.50;;
22768;SDS011;13001;51.968;5.918;2023-02-08T14:11:48;79.90;;;74.70;;
22768;SDS011;13001;51.968;5.918;2023-02-08T14:14:21;88.50;;;82.87;;
22768;SDS011;13001;51.968;5.918;2023-02-08T14:19:33;94.37;;;88.03;;
22768;SDS011;13001;51.968;5.918;2023-02-08T14:24:40;84.43;;;79.03;;
22768;SDS011;13001;51.968;5.918;2023-02-08T14:29:55;99.47;;;93.03;;
22768;SDS011;13001;51.968;5.918;2023-02-08T14:32:23;93.63;;;87.63;;
22768;SDS011;13001;51.968;5.918;2023-02-08T14:34:58;95.30;;;89.23;;
22768;SDS011;13001;51.968;5.918;2023-02-08T14:39:48;95.67;;;89.63;;
22768;SDS011;13001;51.968;5.918;2023-02-08T14:45:03;90.97;;;85.20;;
22768;SDS011;13001;51.968;5.918;2023-02-08T14:50:20;93.57;;;87.60;;
22768;SDS011;13001;51.968;5.918;2023-02-08T14:52:32;96.67;;;90.20;;
22768;SDS011;13001;51.968;5.918;2023-02-08T14:55:14;96.50;;;90.37;;
22768;SDS011;13001;51.968;5.918;2023-02-08T14:57:41;95.43;;;89.37;;
22768;SDS011;13001;51.968;5.918;2023-02-08T15:00:23;92.90;;;87.10;;
22768;SDS011;13001;51.968;5.918;2023-02-08T15:02:47;99.83;;;93.27;;
22768;SDS011;13001;51.968;5.918;2023-02-08T15:05:22;98.33;;;91.63;;
22768;SDS011;13001;51.968;5.918;2023-02-08T15:07:50;98.63;;;92.53;;
22768;SDS011;13001;51.968;5.918;2023-02-08T15:10:19;94.80;;;88.83;;
22768;SDS011;13001;51.968;5.918;2023-02-08T15:12:53;94.17;;;88.17;;
22768;SDS011;13001;51.968;5.918;2023-02-08T15:17:54;86.83;;;81.40;;
22768;SDS011;13001;51.968;5.918;2023-02-08T15:20:23;83.10;;;77.80;;
22768;SDS011;13001;51.968;5.918;2023-02-08T15:25:35;97.73;;;91.43;;
22768;SDS011;13001;51.968;5.918;2023-02-08T15:28:15;89.20;;;83.47;;
22768;SDS011;13001;51.968;5.918;2023-02-08T15:30:33;94.20;;;88.40;;
22768;SDS011;13001;51.968;5.918;2023-02-08T15:33:01;81.40;;;76.47;;
22768;SDS011;13001;51.968;5.918;2023-02-08T15:35:30;86.10;;;80.83;;
22768;SDS011;13001;51.968;5.918;2023-02-08T15:37:57;72.90;;;68.63;;
22768;SDS011;13001;51.968;5.918;2023-02-08T15:40:26;65.87;;;61.93;;
22768;SDS011;13001;51.968;5.918;2023-02-08T15:42:54;71.80;;;67.30;;
22768;SDS011;13001;51.968;5.918;2023-02-08T15:45:22;62.40;;;58.60;;
22768;SDS011;13001;51.968;5.918;2023-02-08T15:47:50;62.17;;;58.37;;
22768;SDS011;13001;51.968;5.918;2023-02-08T15:50:19;66.10;;;62.03;;
22768;SDS011;13001;51.968;5.918;2023-02-08T15:52:55;64.20;;;60.43;;
22768;SDS011;13001;51.968;5.918;2023-02-08T15:55:16;67.63;;;63.63;;
22768;SDS011;13001;51.968;5.918;2023-02-08T15:57:53;72.47;;;67.60;;
22768;SDS011;13001;51.968;5.918;2023-02-08T16:00:22;76.77;;;72.30;;
22768;SDS011;13001;51.968;5.918;2023-02-08T16:02:49;85.10;;;80.07;;
22768;SDS011;13001;51.968;5.918;2023-02-08T16:05:22;105.17;;;98.80;;
22768;SDS011;13001;51.968;5.918;2023-02-08T16:07:45;110.87;;;104.27;;
22768;SDS011;13001;51.968;5.918;2023-02-08T16:10:32;127.67;;;119.83;;
22768;SDS011;13001;51.968;5.918;2023-02-08T16:12:47;144.43;;;135.47;;
22768;SDS011;13001;51.968;5.918;2023-02-08T16:17:59;147.30;;;137.83;;
22768;SDS011;13001;51.968;5.918;2023-02-08T16:20:28;132.33;;;124.07;;
22768;SDS011;13001;51.968;5.918;2023-02-08T16:22:57;145.90;;;136.80;;
22768;SDS011;13001;51.968;5.918;2023-02-08T16:25:34;143.43;;;134.27;;
22768;SDS011;13001;51.968;5.918;2023-02-08T16:28:02;120.63;;;113.23;;
22768;SDS011;13001;51.968;5.918;2023-02-08T16:30:31;144.40;;;135.33;;